Time;durP1;ratioP1;P1;durP2;ratioP2;P2;SDS_P1;SDS_P2;PMS_P1;PMS_P2;Temp;Humidity;BMP_temperature;BMP_pressure;BME280_temperature;BME280_humidity;BME280_pressure;Samples;Min_cycle;Max_cycle;Signal;HPM_P1;HPM_P2
2022/12/16 00:00:23;;;;;;;;;56.00;49.00;;;;;;;;5067394;28;8832;-79
2022/12/16 00:02:51;;;;;;;;;50.00;46.25;;;;;;;;5064658;28;8844;-79
2022/12/16 00:05:19;;;;;;;;;49.50;47.00;;;;;;;;5055127;28;8805;-80
2022/12/16 00:07:47;;;;;;;;;49.50;46.25;;;;;;;;5070840;28;8816;-79
2022/12/16 00:10:15;;;;;;;;;50.25;44.00;;;;;;;;5064447;28;8899;-78
2022/12/16 00:12:42;;;;;;;;;48.50;46.50;;;;;;;;5063462;28;8860;-78
2022/12/16 00:15:10;;;;;;;;;51.75;47.50;;;;;;;;5047158;28;8872;-80
2022/12/16 00:17:38;;;;;;;;;57.50;49.25;;;;;;;;5053349;28;8853;-79
2022/12/16 00:20:07;;;;;;;;;57.50;51.75;;;;;;;;5072928;28;8928;-79
2022/12/16 00:22:36;;;;;;;;;53.25;49.25;;;;;;;;5069140;28;8832;-80
2022/12/16 00:25:06;;;;;;;;;57.25;50.25;;;;;;;;5055311;28;9633;-81
2022/12/16 00:27:34;;;;;;;;;50.50;47.00;;;;;;;;5066912;28;8822;-79
2022/12/16 00:30:01;;;;;;;;;43.50;43.50;;;;;;;;5070635;28;9602;-79
2022/12/16 00:32:29;;;;;;;;;56.00;50.00;;;;;;;;5038412;28;8797;-79
2022/12/16 00:34:57;;;;;;;;;72.25;58.50;;;;;;;;5042374;28;8874;-78
2022/12/16 00:37:26;;;;;;;;;52.75;48.25;;;;;;;;5033292;28;8840;-79
2022/12/16 00:40:21;;;;;;;;;59.25;52.00;;;;;;;;5041856;28;9000;-79
2022/12/16 00:42:48;;;;;;;;;68.75;59.50;;;;;;;;5034426;28;8839;-79
2022/12/16 00:45:16;;;;;;;;;65.50;54.50;;;;;;;;5041598;28;8817;-78
2022/12/16 00:47:43;;;;;;;;;55.75;47.25;;;;;;;;5042939;28;8836;-79
2022/12/16 00:50:11;;;;;;;;;62.50;54.50;;;;;;;;5043179;28;8840;-79
2022/12/16 00:52:39;;;;;;;;;58.00;52.50;;;;;;;;5040862;28;8839;-79
2022/12/16 00:55:09;;;;;;;;;70.50;58.50;;;;;;;;5041079;28;8844;-80
2022/12/16 00:57:40;;;;;;;;;65.50;57.50;;;;;;;;5041952;28;8836;-80
2022/12/16 01:00:11;;;;;;;;;64.75;55.50;;;;;;;;5038413;28;8961;-79
2022/12/16 01:02:40;;;;;;;;;66.25;57.00;;;;;;;;5036990;28;8850;-80
2022/12/16 01:05:09;;;;;;;;;75.75;58.50;;;;;;;;5027501;28;9790;-79
2022/12/16 01:07:36;;;;;;;;;58.75;50.50;;;;;;;;5039669;28;8823;-79
2022/12/16 01:10:07;;;;;;;;;72.50;57.75;;;;;;;;5036450;28;8851;-79
2022/12/16 01:12:34;;;;;;;;;61.50;54.00;;;;;;;;5042844;28;8942;-79
2022/12/16 01:15:06;;;;;;;;;67.50;56.50;;;;;;;;5042606;28;9666;-80
2022/12/16 01:17:34;;;;;;;;;60.50;53.25;;;;;;;;5045613;28;8863;-79
2022/12/16 01:20:02;;;;;;;;;58.75;52.00;;;;;;;;5045588;28;8851;-79
2022/12/16 01:22:31;;;;;;;;;66.00;55.25;;;;;;;;5043785;28;8873;-79
2022/12/16 01:24:59;;;;;;;;;65.75;56.75;;;;;;;;5047116;28;8836;-80
2022/12/16 01:27:27;;;;;;;;;59.00;51.25;;;;;;;;5045919;28;8896;-79
2022/12/16 01:29:55;;;;;;;;;63.00;54.00;;;;;;;;5044447;28;8857;-79
2022/12/16 01:32:24;;;;;;;;;68.75;56.25;;;;;;;;5044836;28;8775;-79
2022/12/16 01:34:52;;;;;;;;;54.00;50.00;;;;;;;;5045121;28;8944;-79
2022/12/16 01:37:20;;;;;;;;;50.50;48.00;;;;;;;;5056121;28;8862;-79
2022/12/16 01:39:50;;;;;;;;;60.25;52.25;;;;;;;;5044094;28;8863;-79
2022/12/16 01:42:20;;;;;;;;;60.75;52.50;;;;;;;;5046925;28;8855;-79
2022/12/16 01:44:49;;;;;;;;;63.50;52.75;;;;;;;;5042590;28;8843;-79
2022/12/16 01:47:19;;;;;;;;;57.25;50.75;;;;;;;;5043516;28;8850;-80
2022/12/16 01:49:52;;;;;;;;;52.25;48.50;;;;;;;;5045788;28;8877;-79
2022/12/16 01:52:22;;;;;;;;;63.50;52.50;;;;;;;;5044303;28;9036;-79
2022/12/16 01:54:52;;;;;;;;;75.25;61.75;;;;;;;;5046672;28;8856;-78
2022/12/16 01:57:24;;;;;;;;;68.50;58.25;;;;;;;;5043367;28;8816;-78
2022/12/16 01:59:53;;;;;;;;;71.00;60.75;;;;;;;;5044101;28;8831;-79
2022/12/16 02:02:21;;;;;;;;;59.00;53.00;;;;;;;;5043280;28;8856;-79
2022/12/16 02:07:36;;;;;;;;;73.50;62.00;;;;;;;;5046448;28;8826;-78
2022/12/16 02:10:04;;;;;;;;;68.75;58.50;;;;;;;;5044140;28;8908;-78
2022/12/16 02:12:40;;;;;;;;;68.75;58.75;;;;;;;;5046338;28;8869;-79
2022/12/16 02:15:33;;;;;;;;;63.50;53.00;;;;;;;;5055233;28;8830;-78
2022/12/16 02:18:08;;;;;;;;;71.75;58.25;;;;;;;;5045731;28;8864;-79
2022/12/16 02:21:02;;;;;;;;;70.25;57.25;;;;;;;;5042504;28;8854;-78
2022/12/16 02:24:19;;;;;;;;;65.50;56.50;;;;;;;;5045466;28;8856;-79
2022/12/16 02:27:11;;;;;;;;;71.50;61.00;;;;;;;;5021910;28;8940;-79
2022/12/16 02:30:05;;;;;;;;;71.50;59.50;;;;;;;;5045668;28;8855;-79
2022/12/16 02:32:44;;;;;;;;;70.00;60.00;;;;;;;;5052301;28;9692;-79
2022/12/16 02:35:15;;;;;;;;;80.50;65.50;;;;;;;;5048200;28;8898;-79
2022/12/16 02:37:47;;;;;;;;;62.75;55.25;;;;;;;;5046360;28;8996;-79
2022/12/16 02:40:21;;;;;;;;;66.00;56.00;;;;;;;;5050296;28;8870;-78
2022/12/16 02:42:53;;;;;;;;;70.50;59.00;;;;;;;;5049365;28;8900;-77
2022/12/16 02:45:23;;;;;;;;;67.50;57.25;;;;;;;;5055402;28;8943;-78
2022/12/16 02:47:52;;;;;;;;;69.75;58.50;;;;;;;;5050925;28;8858;-78
2022/12/16 02:50:23;;;;;;;;;63.75;53.75;;;;;;;;5048431;28;8874;-79
2022/12/16 02:52:52;;;;;;;;;66.00;56.00;;;;;;;;5044913;28;8853;-80
2022/12/16 02:55:20;;;;;;;;;65.75;56.50;;;;;;;;5043954;28;8843;-79
2022/12/16 02:58:05;;;;;;;;;70.50;60.75;;;;;;;;5045762;28;8865;-80
2022/12/16 03:00:41;;;;;;;;;78.25;65.25;;;;;;;;5045320;28;8795;-78
2022/12/16 03:03:13;;;;;;;;;72.00;60.75;;;;;;;;5049948;28;8838;-78
2022/12/16 03:05:44;;;;;;;;;69.50;59.00;;;;;;;;5045047;28;9060;-78
2022/12/16 03:08:14;;;;;;;;;68.50;58.75;;;;;;;;5047724;28;8863;-79
2022/12/16 03:10:45;;;;;;;;;71.50;60.00;;;;;;;;5048826;28;8846;-79
2022/12/16 03:13:13;;;;;;;;;70.75;58.00;;;;;;;;5035788;28;8847;-80
2022/12/16 03:15:42;;;;;;;;;66.00;57.00;;;;;;;;5037426;28;8932;-78
2022/12/16 03:18:12;;;;;;;;;62.75;53.50;;;;;;;;5034343;28;8878;-79
2022/12/16 03:20:42;;;;;;;;;74.75;62.00;;;;;;;;5022139;28;9598;-79
2022/12/16 03:23:13;;;;;;;;;81.25;65.50;;;;;;;;5046854;28;8864;-78
2022/12/16 03:25:43;;;;;;;;;84.75;69.00;;;;;;;;5047337;28;8838;-79
2022/12/16 03:28:21;;;;;;;;;82.25;69.00;;;;;;;;5034602;28;8888;-78
2022/12/16 03:30:53;;;;;;;;;82.00;67.00;;;;;;;;5030721;28;8797;-78
2022/12/16 03:33:25;;;;;;;;;74.75;62.50;;;;;;;;5030427;28;8959;-79
2022/12/16 03:35:57;;;;;;;;;82.50;66.75;;;;;;;;5026088;28;8946;-78
2022/12/16 03:38:26;;;;;;;;;75.00;63.25;;;;;;;;5042566;28;8921;-77
2022/12/16 03:40:54;;;;;;;;;72.50;61.50;;;;;;;;5041465;28;8840;-78
2022/12/16 03:43:22;;;;;;;;;73.25;62.00;;;;;;;;5048965;28;8833;-78
2022/12/16 03:45:53;;;;;;;;;80.25;63.50;;;;;;;;5047288;28;8832;-79
2022/12/16 03:48:25;;;;;;;;;69.75;57.75;;;;;;;;5024657;28;8939;-78
2022/12/16 03:50:52;;;;;;;;;78.25;66.00;;;;;;;;5050381;28;8830;-79
2022/12/16 03:53:23;;;;;;;;;65.25;56.75;;;;;;;;5029303;28;9598;-78
2022/12/16 03:55:50;;;;;;;;;74.00;62.00;;;;;;;;5028207;28;9633;-78
2022/12/16 03:58:18;;;;;;;;;80.25;66.50;;;;;;;;5051216;28;8836;-79
2022/12/16 04:00:46;;;;;;;;;74.50;63.75;;;;;;;;5049501;28;8807;-79
2022/12/16 04:03:13;;;;;;;;;73.00;61.00;;;;;;;;5062878;28;8846;-79
2022/12/16 04:05:42;;;;;;;;;81.50;63.50;;;;;;;;5063313;28;8868;-79
2022/12/16 04:08:10;;;;;;;;;75.75;64.50;;;;;;;;5060726;28;8841;-79
2022/12/16 04:24:40;;;;;;;;;63.75;55.00;;;;;;;;5051584;28;8817;-81
2022/12/16 04:27:28;;;;;;;;;72.25;57.50;;;;;;;;5046242;28;8927;-78
